Time;durP1;ratioP1;P1;durP2;ratioP2;P2;SDS_P1;SDS_P2;PMS_P1;PMS_P2;Temp;Humidity;BMP_temperature;BMP_pressure;BME280_temperature;BME280_humidity;BME280_pressure;Samples;Min_cycle;Max_cycle;Signal;HPM_P1;HPM_P2
2022/06/02 00:02:11;;;;;;;;;;;9.60;99.90;;;;;;4965563;28;19913;-85
2022/06/02 00:04:36;;;;;;;;;;;8.80;99.90;;;;;;4963955;28;19914;-84
2022/06/02 00:07:19;;;;;;;;;;;9.40;99.90;;;;;;4982382;28;19914;-85
2022/06/02 00:09:51;;;;;;;;;;;8.80;99.90;;;;;;4980608;28;19946;-84
2022/06/02 00:12:47;;;;;;;;;;;8.80;99.90;;;;;;4972066;28;19914;-85
2022/06/02 00:15:13;;;;;;;;;;;8.80;99.90;;;;;;4942613;29;19923;-85
2022/06/02 00:17:42;;;;;;;;;;;9.20;99.90;;;;;;4942639;29;20041;-85
2022/06/02 00:20:08;;;;;;;;;;;8.70;99.90;;;;;;4942617;29;19963;-85
2022/06/02 00:22:37;;;;;;;;;;;8.70;99.90;;;;;;4942639;29;19919;-85
2022/06/02 00:25:08;;;;;;;;;;;8.70;99.90;;;;;;4942249;29;19911;-86
2022/06/02 00:27:39;;;;;;;;;;;8.80;99.90;;;;;;4942325;29;19922;-85
2022/06/02 00:30:24;;;;;;;;;;;8.70;99.90;;;;;;4942136;29;19943;-86
2022/06/02 00:33:13;;;;;;;;;;;8.60;99.90;;;;;;4942370;29;19918;-85
2022/06/02 00:35:53;;;;;;;;;;;8.60;99.90;;;;;;4885681;29;19937;-86
2022/06/02 00:38:21;;;;;;;;;;;8.10;99.90;;;;;;4855290;29;19928;-86
2022/06/02 00:40:47;;;;;;;;;;;8.60;99.90;;;;;;4870519;29;19916;-85
2022/06/02 00:43:25;;;;;;;;;;;8.80;99.90;;;;;;4885915;29;19937;-85
2022/06/02 00:46:08;;;;;;;;;;;8.60;99.90;;;;;;4885845;29;19946;-85
2022/06/02 00:48:43;;;;;;;;;;;8.50;99.90;;;;;;4885529;29;19923;-86
2022/06/02 00:51:11;;;;;;;;;;;8.50;99.90;;;;;;4883745;29;19947;-86
2022/06/02 00:59:51;;;;;;;;;;;8.50;99.90;;;;;;4903383;29;22336;-85
2022/06/02 01:02:17;;;;;;;;;;;8.50;99.90;;;;;;4888743;29;19912;-86
2022/06/02 01:04:43;;;;;;;;;;;8.50;99.90;;;;;;4888859;29;19989;-85
2022/06/02 01:07:24;;;;;;;;;;;8.70;99.90;;;;;;4904271;29;19923;-85
2022/06/02 01:10:08;;;;;;;;;;;8.50;99.90;;;;;;4904135;29;19937;-84
2022/06/02 01:12:55;;;;;;;;;;;8.40;99.90;;;;;;4904138;29;19912;-84
2022/06/02 01:15:42;;;;;;;;;;;8.40;99.90;;;;;;4903963;29;19924;-84
2022/06/02 01:18:17;;;;;;;;;;;9.10;99.90;;;;;;4904068;29;19916;-84
2022/06/02 01:21:01;;;;;;;;;;;8.40;99.90;;;;;;4904208;29;19971;-84
2022/06/02 01:23:44;;;;;;;;;;;8.40;99.90;;;;;;4888783;29;19928;-85
2022/06/02 01:26:19;;;;;;;;;;;8.40;99.90;;;;;;4904082;29;19950;-85
2022/06/02 01:28:47;;;;;;;;;;;8.30;99.90;;;;;;4904118;29;19912;-85
2022/06/02 01:31:22;;;;;;;;;;;8.30;99.90;;;;;;4888475;29;19941;-84
2022/06/02 01:33:57;;;;;;;;;;;8.30;99.90;;;;;;4973361;28;19909;-84
2022/06/02 01:36:29;;;;;;;;;;;8.30;99.90;;;;;;5000138;28;19918;-83
2022/06/02 01:39:18;;;;;;;;;;;8.30;99.90;;;;;;5000194;28;19910;-84
2022/06/02 01:42:01;;;;;;;;;;;8.20;99.90;;;;;;5000401;28;19910;-84
2022/06/02 01:44:33;;;;;;;;;;;8.20;99.90;;;;;;5000038;28;20002;-83
2022/06/02 01:47:04;;;;;;;;;;;8.20;99.90;;;;;;5000103;28;19910;-84
2022/06/02 01:49:32;;;;;;;;;;;8.20;99.90;;;;;;5000193;28;19914;-84
2022/06/02 01:52:16;;;;;;;;;;;8.10;99.90;;;;;;5000063;28;19941;-84
2022/06/02 01:55:00;;;;;;;;;;;8.20;99.90;;;;;;4983506;28;19910;-84
2022/06/02 01:57:52;;;;;;;;;;;8.10;99.90;;;;;;4999942;28;19911;-85
2022/06/02 02:00:20;;;;;;;;;;;8.10;99.90;;;;;;4943921;29;19915;-84
2022/06/02 02:03:04;;;;;;;;;;;8.00;99.90;;;;;;4945201;29;19970;-85
2022/06/02 02:05:33;;;;;;;;;;;8.00;99.90;;;;;;4944873;29;19915;-84
2022/06/02 02:08:01;;;;;;;;;;;8.00;99.90;;;;;;4944885;29;19911;-83
2022/06/02 02:10:29;;;;;;;;;;;8.00;99.90;;;;;;4944961;28;19918;-84
2022/06/02 02:12:55;;;;;;;;;;;7.90;99.90;;;;;;4944777;29;20185;-84
2022/06/02 02:15:33;;;;;;;;;;;8.40;99.90;;;;;;4944795;29;19911;-84
2022/06/02 02:18:25;;;;;;;;;;;7.90;99.90;;;;;;4944735;29;19911;-86
2022/06/02 02:21:09;;;;;;;;;;;7.90;99.90;;;;;;4872787;29;19994;-83
2022/06/02 02:23:51;;;;;;;;;;;7.90;99.90;;;;;;4888287;29;19912;-84
2022/06/02 02:26:24;;;;;;;;;;;7.90;99.90;;;;;;4888271;29;19919;-84
2022/06/02 02:28:58;;;;;;;;;;;7.80;99.90;;;;;;4872732;29;19912;-84
2022/06/02 02:31:33;;;;;;;;;;;7.80;99.90;;;;;;4887959;29;19919;-84
2022/06/02 02:34:04;;;;;;;;;;;7.80;99.90;;;;;;4888017;29;19912;-84
2022/06/02 02:36:39;;;;;;;;;;;7.80;99.90;;;;;;4893611;29;19928;-84
2022/06/02 02:39:23;;;;;;;;;;;7.80;99.90;;;;;;4906712;29;19914;-84
2022/06/02 02:42:05;;;;;;;;;;;7.80;99.90;;;;;;4906596;29;19916;-83
2022/06/02 02:45:09;;;;;;;;;;;7.80;99.90;;;;;;4906460;29;19919;-84
2022/06/02 02:47:42;;;;;;;;;;;7.80;99.90;;;;;;4872328;29;19975;-84
2022/06/02 02:50:15;;;;;;;;;;;7.80;99.90;;;;;;4887711;29;19957;-84
2022/06/02 02:52:49;;;;;;;;;;;8.00;99.90;;;;;;4872265;29;19921;-84
2022/06/02 02:55:18;;;;;;;;;;;7.80;99.90;;;;;;4887846;29;19912;-84
2022/06/02 02:57:50;;;;;;;;;;;7.80;99.90;;;;;;4909345;29;19912;-84
2022/06/02 03:00:28;;;;;;;;;;;7.80;99.90;;;;;;4909336;29;19967;-84
2022/06/02 03:03:00;;;;;;;;;;;7.80;99.90;;;;;;4925135;29;19918;-84
2022/06/02 03:05:45;;;;;;;;;;;7.80;99.90;;;;;;4924832;29;19918;-84
2022/06/02 03:08:27;;;;;;;;;;;7.70;99.90;;;;;;4924947;29;19926;-85
2022/06/02 03:10:57;;;;;;;;;;;7.70;99.90;;;;;;4908809;29;19912;-84
2022/06/02 03:13:45;;;;;;;;;;;8.00;99.90;;;;;;4924966;29;19951;-85
2022/06/02 03:16:12;;;;;;;;;;;7.70;99.90;;;;;;4924537;29;19974;-85
2022/06/02 03:18:38;;;;;;;;;;;7.90;99.90;;;;;;4960050;28;19914;-84
2022/06/02 03:21:18;;;;;;;;;;;8.10;99.90;;;;;;5001959;28;19947;-84
2022/06/02 03:24:02;;;;;;;;;;;7.70;99.90;;;;;;5002154;28;19910;-84
2022/06/02 03:26:34;;;;;;;;;;;7.70;99.90;;;;;;5001933;28;19916;-84
2022/06/02 03:29:18;;;;;;;;;;;7.70;99.90;;;;;;5001860;28;19934;-84
2022/06/02 03:31:48;;;;;;;;;;;7.70;99.90;;;;;;5002109;28;19914;-84
2022/06/02 03:34:19;;;;;;;;;;;7.70;99.90;;;;;;5001959;28;19918;-85
2022/06/02 03:36:46;;;;;;;;;;;8.60;99.90;;;;;;5001079;28;19933;-85
2022/06/02 03:39:33;;;;;;;;;;;8.30;99.90;;;;;;5001746;28;19973;-84
2022/06/02 03:42:02;;;;;;;;;;;7.70;99.90;;;;;;4985107;28;19910;-84
2022/06/02 03:44:27;;;;;;;;;;;7.70;99.90;;;;;;5001834;28;19910;-84
2022/06/02 03:47:02;;;;;;;;;;;8.50;99.90;;;;;;5001564;28;19917;-84
2022/06/02 03:49:41;;;;;;;;;;;7.70;99.90;;;;;;5001565;28;19910;-85
2022/06/02 03:52:12;;;;;;;;;;;7.80;99.90;;;;;;5001433;28;19914;-84
2022/06/02 03:54:38;;;;;;;;;;;7.80;99.90;;;;;;4984868;28;19918;-84
2022/06/02 03:57:03;;;;;;;;;;;7.80;99.90;;;;;;4984739;28;19910;-83
2022/06/02 03:59:39;;;;;;;;;;;7.80;99.90;;;;;;5001260;28;19914;-84
2022/06/02 04:02:07;;;;;;;;;;;8.00;99.90;;;;;;5001196;28;19910;-84
2022/06/02 04:04:44;;;;;;;;;;;7.90;99.90;;;;;;5001139;28;19915;-84
2022/06/02 04:07:28;;;;;;;;;;;7.90;99.90;;;;;;5001148;28;19918;-84
2022/06/02 04:10:02;;;;;;;;;;;7.90;99.90;;;;;;5001213;28;19925;-84
2022/06/02 04:16:02;;;;;;;;;;;8.00;99.90;;;;;;4942399;29;19911;-85
2022/06/02 04:18:30;;;;;;;;;;;8.00;99.90;;;;;;4886052;29;19959;-84
2022/06/02 04:21:01;;;;;;;;;;;8.00;99.90;;;;;;4885792;29;19908;-83
2022/06/02 04:23:45;;;;;;;;;;;8.10;99.90;;;;;;4885726;29;19916;-84
2022/06/02 04:26:30;;;;;;;;;;;8.10;99.90;;;;;;4885847;29;19922;-84
2022/06/02 04:29:16;;;;;;;;;;;8.10;99.90;;;;;;4885862;29;19953;-83
2022/06/02 04:32:00;;;;;;;;;;;8.10;99.90;;;;;;4885769;29;19913;-84
2022/06/02 04:34:26;;;;;;;;;;;8.10;99.90;;;;;;4870436;29;19916;-84
2022/06/02 04:37:00;;;;;;;;;;;8.20;99.90;;;;;;4870221;29;19963;-84
2022/06/02 04:39:52;;;;;;;;;;;8.20;99.90;;;;;;4885743;29;19912;-84
2022/06/02 04:42:26;;;;;;;;;;;8.30;99.90;;;;;;4868494;29;20037;-84
2022/06/02 04:45:04;;;;;;;;;;;8.30;99.90;;;;;;4885645;29;19918;-84
2022/06/02 04:47:32;;;;;;;;;;;8.30;99.90;;;;;;4870225;29;19923;-85
2022/06/02 04:50:00;;;;;;;;;;;8.50;99.90;;;;;;4885720;29;19912;-84
2022/06/02 04:52:41;;;;;;;;;;;8.50;99.90;;;;;;4892501;29;19940;-86
2022/06/02 04:55:20;;;;;;;;;;;8.60;99.90;;;;;;4960054;28;19917;-84
2022/06/02 04:57:45;;;;;;;;;;;8.70;99.90;;;;;;5000026;28;19969;-83
2022/06/02 05:00:17;;;;;;;;;;;9.10;99.90;;;;;;5000349;28;19917;-84
2022/06/02 05:02:45;;;;;;;;;;;8.90;99.90;;;;;;5000561;28;19934;-84
2022/06/02 05:05:34;;;;;;;;;;;9.10;99.90;;;;;;5000457;28;19925;-85
2022/06/02 05:08:38;;;;;;;;;;;9.20;99.90;;;;;;4941847;29;20000;-84
2022/06/02 05:11:22;;;;;;;;;;;9.30;99.90;;;;;;4885348;29;19927;-84
2022/06/02 05:13:53;;;;;;;;;;;9.40;99.90;;;;;;4869955;29;19920;-84
2022/06/02 05:16:28;;;;;;;;;;;9.60;99.90;;;;;;4885270;29;19941;-85
2022/06/02 05:19:04;;;;;;;;;;;9.70;99.90;;;;;;4885293;29;19919;-85
2022/06/02 05:21:38;;;;;;;;;;;10.40;99.90;;;;;;4885321;29;19923;-85
2022/06/02 05:24:18;;;;;;;;;;;9.90;99.90;;;;;;4885434;29;19912;-85
2022/06/02 05:26:46;;;;;;;;;;;10.10;99.90;;;;;;4869903;29;19916;-85
2022/06/02 05:29:30;;;;;;;;;;;10.20;99.90;;;;;;4869818;29;19908;-85
2022/06/02 05:31:59;;;;;;;;;;;10.40;99.90;;;;;;4885264;29;19919;-84
2022/06/02 05:34:34;;;;;;;;;;;10.50;99.90;;;;;;4888289;29;19931;-85
2022/06/02 05:37:05;;;;;;;;;;;10.70;99.90;;;;;;4888801;29;19912;-85
2022/06/02 05:39:30;;;;;;;;;;;11.60;99.90;;;;;;4888873;29;19935;-85
2022/06/02 05:42:02;;;;;;;;;;;11.00;99.90;;;;;;4922044;29;19911;-84
2022/06/02 05:44:34;;;;;;;;;;;11.10;99.90;;;;;;4964285;28;19912;-85
2022/06/02 05:47:11;;;;;;;;;;;11.20;99.90;;;;;;4987174;28;19920;-85
2022/06/02 05:49:46;;;;;;;;;;;11.40;99.90;;;;;;5003812;28;19922;-85
2022/06/02 05:52:22;;;;;;;;;;;11.60;99.90;;;;;;5003641;28;19949;-85
2022/06/02 05:54:48;;;;;;;;;;;11.70;99.90;;;;;;5003237;28;19946;-84
2022/06/02 05:57:22;;;;;;;;;;;11.90;99.90;;;;;;5010058;28;19921;-85
2022/06/02 06:00:11;;;;;;;;;;;12.00;99.90;;;;;;4986675;28;19917;-85
2022/06/02 06:02:45;;;;;;;;;;;12.20;99.90;;;;;;4944727;29;19916;-85
2022/06/02 06:05:11;;;;;;;;;;;12.50;99.90;;;;;;4944663;29;19952;-84
2022/06/02 06:07:50;;;;;;;;;;;12.60;99.90;;;;;;4944778;29;19911;-84
2022/06/02 06:10:20;;;;;;;;;;;12.70;99.90;;;;;;4929005;29;19915;-84
2022/06/02 06:12:56;;;;;;;;;;;12.80;99.90;;;;;;4925609;29;19918;-84
2022/06/02 06:15:22;;;;;;;;;;;13.00;99.90;;;;;;4925799;29;19912;-86
2022/06/02 06:17:54;;;;;;;;;;;13.10;99.90;;;;;;4925626;29;19971;-85
2022/06/02 06:20:19;;;;;;;;;;;13.30;99.90;;;;;;4941358;29;19911;-87
2022/06/02 06:23:04;;;;;;;;;;;13.60;99.90;;;;;;4941470;29;19964;-87
2022/06/02 06:25:29;;;;;;;;;;;13.50;99.90;;;;;;4910531;29;19924;-85
2022/06/02 06:28:01;;;;;;;;;;;14.30;99.90;;;;;;4925572;29;19912;-87
2022/06/02 06:30:35;;;;;;;;;;;13.90;99.90;;;;;;4925206;29;19951;-87
2022/06/02 06:33:01;;;;;;;;;;;14.00;99.90;;;;;;4925458;29;19919;-86
2022/06/02 06:35:42;;;;;;;;;;;14.20;99.90;;;;;;4925248;29;19911;-90
2022/06/02 06:38:10;;;;;;;;;;;14.30;99.90;;;;;;4925438;29;19965;-86
2022/06/02 06:40:55;;;;;;;;;;;14.50;99.90;;;;;;4983631;28;19910;-87
2022/06/02 06:43:23;;;;;;;;;;;14.60;99.90;;;;;;4986317;28;19922;-87
2022/06/02 06:45:55;;;;;;;;;;;14.80;99.90;;;;;;4985608;28;19917;-87
2022/06/02 06:48:40;;;;;;;;;;;15.00;99.90;;;;;;4986225;28;19933;-89
2022/06/02 06:51:24;;;;;;;;;;;15.20;99.90;;;;;;5002545;28;19914;-89
2022/06/02 06:53:58;;;;;;;;;;;15.30;99.90;;;;;;5002611;28;19918;-88
2022/06/02 06:56:30;;;;;;;;;;;15.30;99.90;;;;;;4985884;28;19910;-87
2022/06/02 06:59:36;;;;;;;;;;;15.20;99.90;;;;;;5002466;28;19910;-86
2022/06/02 07:02:12;;;;;;;;;;;15.20;99.90;;;;;;4927958;29;19911;-85
2022/06/02 07:04:56;;;;;;;;;;;15.50;99.90;;;;;;4943805;29;19915;-86
2022/06/02 07:07:26;;;;;;;;;;;15.40;99.90;;;;;;4926090;29;19922;-87
2022/06/02 07:09:57;;;;;;;;;;;15.20;99.90;;;;;;4943781;29;19938;-86
2022/06/02 07:12:50;;;;;;;;;;;15.30;99.90;;;;;;4927875;29;19968;-85
2022/06/02 07:15:37;;;;;;;;;;;15.40;99.90;;;;;;4942106;29;19911;-88
2022/06/02 07:18:20;;;;;;;;;;;15.70;99.90;;;;;;4943563;29;19948;-89
2022/06/02 07:20:49;;;;;;;;;;;15.80;99.90;;;;;;4927068;29;19954;-88
2022/06/02 07:23:27;;;;;;;;;;;15.70;99.90;;;;;;4927806;29;19986;-89
2022/06/02 07:25:58;;;;;;;;;;;15.70;99.90;;;;;;4927585;29;19911;-89
2022/06/02 07:28:43;;;;;;;;;;;15.60;99.90;;;;;;4927535;29;19911;-88
2022/06/02 07:31:11;;;;;;;;;;;15.80;99.90;;;;;;4926685;29;20008;-88
2022/06/02 07:33:37;;;;;;;;;;;15.90;99.90;;;;;;4995191;28;19926;-88
2022/06/02 07:36:26;;;;;;;;;;;15.80;99.90;;;;;;4965850;29;19910;-88
2022/06/02 07:38:58;;;;;;;;;;;15.90;99.90;;;;;;4965937;29;19915;-88
2022/06/02 07:41:33;;;;;;;;;;;16.00;99.90;;;;;;4965926;29;19914;-88
2022/06/02 07:44:10;;;;;;;;;;;16.30;99.90;;;;;;4965867;29;19977;-88
2022/06/02 07:46:46;;;;;;;;;;;15.90;99.90;;;;;;5006989;28;19906;-87
2022/06/02 07:49:17;;;;;;;;;;;15.90;99.90;;;;;;5001543;28;19910;-88
2022/06/02 07:51:43;;;;;;;;;;;16.10;99.90;;;;;;4985075;28;19941;-86
2022/06/02 07:54:15;;;;;;;;;;;16.20;99.90;;;;;;4985019;28;19965;-87
2022/06/02 07:56:44;;;;;;;;;;;16.30;99.90;;;;;;4983909;28;19977;-86
2022/06/02 07:59:16;;;;;;;;;;;16.10;99.90;;;;;;4968281;28;19911;-88
2022/06/02 08:01:48;;;;;;;;;;;16.30;99.90;;;;;;4984751;28;19974;-89
2022/06/02 08:04:31;;;;;;;;;;;16.00;99.90;;;;;;4984539;28;19910;-88
2022/06/02 08:06:59;;;;;;;;;;;16.00;99.90;;;;;;4968644;28;19909;-85
2022/06/02 08:09:28;;;;;;;;;;;16.10;99.90;;;;;;4957035;28;19945;-85
2022/06/02 08:12:05;;;;;;;;;;;16.10;99.90;;;;;;4983497;28;19906;-88
2022/06/02 08:14:45;;;;;;;;;;;16.30;99.90;;;;;;4970602;28;19910;-83
2022/06/02 08:17:16;;;;;;;;;;;16.20;99.90;;;;;;4981662;29;19934;-84
2022/06/02 08:20:01;;;;;;;;;;;16.30;99.90;;;;;;4988127;28;19914;-84
2022/06/02 08:22:35;;;;;;;;;;;16.30;99.90;;;;;;5001052;28;19945;-82
2022/06/02 08:25:04;;;;;;;;;;;16.40;99.90;;;;;;4984423;28;19910;-83
2022/06/02 08:27:32;;;;;;;;;;;16.30;99.90;;;;;;5000945;28;19914;-83
2022/06/02 08:30:04;;;;;;;;;;;16.40;99.90;;;;;;5000736;28;19925;-85
2022/06/02 08:32:32;;;;;;;;;;;16.40;99.90;;;;;;5000899;28;19910;-83
2022/06/02 08:35:24;;;;;;;;;;;16.60;99.90;;;;;;5000811;28;19910;-84
2022/06/02 08:38:10;;;;;;;;;;;16.60;99.90;;;;;;4997751;28;19985;-84
2022/06/02 08:40:54;;;;;;;;;;;16.60;99.90;;;;;;5000891;28;19917;-83
2022/06/02 08:43:29;;;;;;;;;;;16.80;99.90;;;;;;4986382;28;19991;-83
2022/06/02 08:46:07;;;;;;;;;;;16.60;99.90;;;;;;4981300;28;19925;-84
2022/06/02 08:48:52;;;;;;;;;;;16.50;99.90;;;;;;4981160;28;19910;-88
2022/06/02 08:51:46;;;;;;;;;;;16.40;99.90;;;;;;4981153;29;19985;-83
2022/06/02 08:54:31;;;;;;;;;;;16.50;99.90;;;;;;4941744;29;19911;-84
2022/06/02 08:57:15;;;;;;;;;;;16.60;99.90;;;;;;4926083;29;19912;-83
2022/06/02 08:59:41;;;;;;;;;;;16.70;99.90;;;;;;4925948;29;19918;-84
2022/06/02 09:02:25;;;;;;;;;;;16.70;99.90;;;;;;4941879;29;19998;-85
2022/06/02 09:04:56;;;;;;;;;;;16.60;99.90;;;;;;4925323;29;19915;-85
2022/06/02 09:07:40;;;;;;;;;;;16.80;99.90;;;;;;4922307;29;19912;-88
2022/06/02 09:10:15;;;;;;;;;;;16.80;99.90;;;;;;4922706;29;19918;-85
2022/06/02 09:12:56;;;;;;;;;;;17.00;99.90;;;;;;4922824;29;19971;-82
2022/06/02 09:15:27;;;;;;;;;;;17.20;99.90;;;;;;4927406;29;19948;-84
2022/06/02 09:18:02;;;;;;;;;;;17.30;99.90;;;;;;4941611;29;19911;-83
2022/06/02 09:20:37;;;;;;;;;;;17.30;99.90;;;;;;4941613;29;19987;-83
2022/06/02 09:23:14;;;;;;;;;;;17.40;99.90;;;;;;4925246;29;19950;-84
2022/06/02 09:25:40;;;;;;;;;;;17.40;99.90;;;;;;4941434;29;20056;-83
2022/06/02 09:28:21;;;;;;;;;;;17.60;99.90;;;;;;4940919;29;19942;-82
2022/06/02 09:30:53;;;;;;;;;;;17.80;99.90;;;;;;4965316;29;19982;-84
2022/06/02 09:33:34;;;;;;;;;;;17.90;99.90;;;;;;4980804;29;19914;-83
2022/06/02 09:36:19;;;;;;;;;;;17.90;99.90;;;;;;4980166;29;19965;-85
2022/06/02 09:38:54;;;;;;;;;;;17.90;99.90;;;;;;4980518;29;19942;-84
2022/06/02 09:41:39;;;;;;;;;;;18.10;99.90;;;;;;4964262;29;19910;-83
2022/06/02 09:44:15;;;;;;;;;;;18.20;99.90;;;;;;4980755;29;19970;-83
2022/06/02 09:46:53;;;;;;;;;;;18.00;99.90;;;;;;4980666;29;19954;-82
2022/06/02 09:49:37;;;;;;;;;;;18.10;99.90;;;;;;4980772;29;19915;-83
2022/06/02 09:52:14;;;;;;;;;;;18.20;99.90;;;;;;4978939;28;19965;-82
2022/06/02 09:54:46;;;;;;;;;;;18.30;99.90;;;;;;4996967;28;19914;-84
2022/06/02 10:00:25;;;;;;;;;;;18.60;99.90;;;;;;4999334;28;19974;-83
2022/06/02 10:02:50;;;;;;;;;;;18.50;99.90;;;;;;4999869;28;19925;-83
2022/06/02 10:05:25;;;;;;;;;;;18.70;99.90;;;;;;5000115;28;19914;-84
2022/06/02 10:08:05;;;;;;;;;;;18.60;99.90;;;;;;4999868;28;19921;-83
2022/06/02 10:10:49;;;;;;;;;;;18.50;99.90;;;;;;4983255;28;19925;-84
2022/06/02 10:18:46;;;;;;;;;;;18.40;99.90;;;;;;5789272;23;19918;-91
2022/06/02 10:24:51;;;;;;;;;;;18.50;99.90;;;;;;5002582;28;19922;-86
2022/06/02 10:27:35;;;;;;;;;;;18.50;99.90;;;;;;5002675;28;19981;-85
2022/06/02 10:30:22;;;;;;;;;;;18.80;99.90;;;;;;5022662;28;19910;-85
2022/06/02 10:33:02;;;;;;;;;;;19.20;99.90;;;;;;5022649;28;19922;-87
2022/06/02 10:35:46;;;;;;;;;;;19.60;99.90;;;;;;5022501;28;19924;-86
2022/06/02 10:38:18;;;;;;;;;;;19.30;99.90;;;;;;5022490;28;19941;-86
2022/06/02 10:41:02;;;;;;;;;;;19.30;99.90;;;;;;4998013;28;19910;-86
2022/06/02 10:43:33;;;;;;;;;;;19.40;99.90;;;;;;5022209;28;19921;-86
2022/06/02 10:46:05;;;;;;;;;;;19.50;99.90;;;;;;5005535;28;19914;-86
2022/06/02 10:48:44;;;;;;;;;;;19.70;99.90;;;;;;5021764;28;19910;-86
2022/06/02 10:51:10;;;;;;;;;;;19.70;99.90;;;;;;5005504;28;19933;-86
2022/06/02 10:53:35;;;;;;;;;;;19.40;99.90;;;;;;4989325;28;19910;-87
2022/06/02 10:56:01;;;;;;;;;;;19.50;99.90;;;;;;5005278;28;19997;-87
2022/06/02 10:58:36;;;;;;;;;;;19.40;99.90;;;;;;5022240;28;19940;-86
2022/06/02 11:01:14;;;;;;;;;;;19.30;99.90;;;;;;5005344;28;19916;-86
2022/06/02 11:03:45;;;;;;;;;;;19.60;99.90;;;;;;5005158;28;19953;-86
2022/06/02 11:06:30;;;;;;;;;;;19.90;99.90;;;;;;5021869;28;19914;-86
2022/06/02 11:09:05;;;;;;;;;;;19.70;99.90;;;;;;5005235;28;19917;-85
2022/06/02 11:11:46;;;;;;;;;;;19.70;99.90;;;;;;5002854;28;19916;-83
2022/06/02 11:14:26;;;;;;;;;;;19.60;99.90;;;;;;5002120;28;19922;-83
2022/06/02 11:17:17;;;;;;;;;;;19.50;99.90;;;;;;5001959;28;19949;-84
2022/06/02 11:19:56;;;;;;;;;;;19.80;99.90;;;;;;5001510;28;19966;-84
2022/06/02 11:22:33;;;;;;;;;;;20.20;99.90;;;;;;4982714;29;19934;-83
2022/06/02 11:25:17;;;;;;;;;;;20.20;99.90;;;;;;4982653;29;19942;-84
2022/06/02 11:27:49;;;;;;;;;;;20.30;99.90;;;;;;4966211;29;19911;-84
2022/06/02 11:30:33;;;;;;;;;;;20.50;99.90;;;;;;4982749;29;19911;-84
2022/06/02 11:33:17;;;;;;;;;;;20.70;99.20;;;;;;4982608;29;19946;-84
2022/06/02 11:36:01;;;;;;;;;;;20.60;99.50;;;;;;4982374;29;19910;-84
2022/06/02 11:38:36;;;;;;;;;;;20.40;99.90;;;;;;4982367;29;19918;-85
2022/06/02 11:41:02;;;;;;;;;;;20.40;99.90;;;;;;4982423;29;19917;-84
2022/06/02 11:43:33;;;;;;;;;;;20.20;99.90;;;;;;4982414;29;19910;-85
2022/06/02 11:46:16;;;;;;;;;;;20.40;99.90;;;;;;4982343;29;19910;-84
2022/06/02 11:49:00;;;;;;;;;;;20.60;98.40;;;;;;4982158;29;19954;-84
2022/06/02 11:51:32;;;;;;;;;;;20.60;99.00;;;;;;4982177;29;19910;-84
2022/06/02 11:54:05;;;;;;;;;;;20.60;99.80;;;;;;4965664;29;19942;-85
2022/06/02 11:56:36;;;;;;;;;;;20.70;98.60;;;;;;4982116;29;19911;-84
2022/06/02 11:59:05;;;;;;;;;;;20.50;99.40;;;;;;4965637;29;19965;-84
2022/06/02 12:01:40;;;;;;;;;;;20.50;98.50;;;;;;4982099;29;19906;-84
2022/06/02 12:04:06;;;;;;;;;;;20.40;98.40;;;;;;4982043;29;19933;-85
2022/06/02 12:06:52;;;;;;;;;;;20.40;99.90;;;;;;4981886;29;19938;-84
2022/06/02 12:09:33;;;;;;;;;;;20.70;98.30;;;;;;4965471;29;19918;-82
2022/06/02 12:12:08;;;;;;;;;;;20.70;98.30;;;;;;4981746;29;19913;-85
2022/06/02 12:14:52;;;;;;;;;;;20.90;98.70;;;;;;4981778;29;19938;-82
2022/06/02 12:17:20;;;;;;;;;;;21.10;96.10;;;;;;4981545;29;19926;-85
2022/06/02 12:19:54;;;;;;;;;;;21.00;97.40;;;;;;4981500;29;19910;-87
2022/06/02 12:22:36;;;;;;;;;;;21.00;98.90;;;;;;4981611;29;19970;-85
2022/06/02 12:25:11;;;;;;;;;;;21.30;99.50;;;;;;4964912;29;19917;-88
2022/06/02 12:27:55;;;;;;;;;;;21.60;96.90;;;;;;4981631;29;19979;-86
2022/06/02 12:30:24;;;;;;;;;;;21.30;96.80;;;;;;4981328;29;19965;-86
2022/06/02 12:33:08;;;;;;;;;;;21.40;96.00;;;;;;4964982;29;19977;-86
2022/06/02 12:35:50;;;;;;;;;;;21.60;97.50;;;;;;4964829;29;19965;-86
2022/06/02 12:38:36;;;;;;;;;;;22.10;95.80;;;;;;4981470;29;19942;-87
2022/06/02 12:41:25;;;;;;;;;;;22.30;95.80;;;;;;4981314;29;19933;-87
2022/06/02 12:43:53;;;;;;;;;;;22.40;95.80;;;;;;4964408;29;19914;-87
2022/06/02 12:46:23;;;;;;;;;;;22.70;94.80;;;;;;4964969;29;19921;-86
2022/06/02 12:49:07;;;;;;;;;;;22.80;94.50;;;;;;4981327;29;19914;-89
2022/06/02 12:51:48;;;;;;;;;;;22.70;91.60;;;;;;4981026;29;19911;-88
2022/06/02 12:54:26;;;;;;;;;;;22.70;91.40;;;;;;4964361;28;19914;-87
2022/06/02 12:56:54;;;;;;;;;;;22.50;91.90;;;;;;4981099;29;19910;-85
2022/06/02 12:59:26;;;;;;;;;;;22.20;90.90;;;;;;4998391;28;19914;-85
2022/06/02 13:02:05;;;;;;;;;;;22.40;91.60;;;;;;4998458;28;19906;-84
2022/06/02 13:04:31;;;;;;;;;;;22.80;90.00;;;;;;5000423;28;19911;-84
2022/06/02 13:07:09;;;;;;;;;;;22.80;90.70;;;;;;4984710;28;20008;-86
2022/06/02 13:09:37;;;;;;;;;;;22.70;93.20;;;;;;4987857;28;20795;-86
2022/06/02 13:12:22;;;;;;;;;;;22.60;90.80;;;;;;5002505;28;19910;-85
2022/06/02 13:14:50;;;;;;;;;;;22.60;91.30;;;;;;5002654;28;19996;-85
2022/06/02 13:17:35;;;;;;;;;;;23.00;89.30;;;;;;4984572;28;20060;-87
2022/06/02 13:20:13;;;;;;;;;;;23.00;90.10;;;;;;5002723;28;19914;-87
2022/06/02 13:22:57;;;;;;;;;;;22.70;90.90;;;;;;5003096;28;19946;-89
2022/06/02 13:25:42;;;;;;;;;;;22.90;91.40;;;;;;4986212;28;19949;-87
2022/06/02 13:28:26;;;;;;;;;;;22.80;90.10;;;;;;4986850;28;20145;-86
2022/06/02 13:31:11;;;;;;;;;;;22.90;88.00;;;;;;5004202;28;19925;-85
2022/06/02 13:33:52;;;;;;;;;;;23.00;90.60;;;;;;5003973;28;19918;-84
2022/06/02 13:36:24;;;;;;;;;;;23.10;89.60;;;;;;4985768;28;20020;-87
2022/06/02 13:38:50;;;;;;;;;;;23.00;91.80;;;;;;4987816;28;19941;-87
2022/06/02 13:41:22;;;;;;;;;;;23.40;86.00;;;;;;5003213;28;20018;-86
2022/06/02 13:44:06;;;;;;;;;;;23.20;87.80;;;;;;5002588;28;19929;-87
2022/06/02 13:46:50;;;;;;;;;;;22.40;90.10;;;;;;5001883;28;19928;-86
2022/06/02 13:49:29;;;;;;;;;;;21.90;90.20;;;;;;5003146;28;19926;-87
2022/06/02 13:52:01;;;;;;;;;;;21.60;91.30;;;;;;5014468;28;19910;-86
2022/06/02 13:57:44;;;;;;;;;;;22.10;90.70;;;;;;5006259;28;19916;-87
2022/06/02 14:00:13;;;;;;;;;;;22.50;91.00;;;;;;5023146;28;19910;-87
2022/06/02 14:02:58;;;;;;;;;;;22.60;91.70;;;;;;5023156;28;19910;-88
2022/06/02 14:05:39;;;;;;;;;;;23.00;86.60;;;;;;5006474;28;19914;-89
2022/06/02 14:08:23;;;;;;;;;;;23.20;91.00;;;;;;5006292;28;19910;-90
2022/06/02 14:10:57;;;;;;;;;;;23.00;86.60;;;;;;4984962;28;19917;-88
2022/06/02 14:13:32;;;;;;;;;;;23.30;89.60;;;;;;4976550;29;19918;-87
2022/06/02 14:16:13;;;;;;;;;;;23.60;83.90;;;;;;4967603;29;19926;-89
2022/06/02 14:18:45;;;;;;;;;;;23.30;80.50;;;;;;4974392;28;19942;-89
2022/06/02 14:21:30;;;;;;;;;;;23.10;77.90;;;;;;4998276;28;19933;-87
2022/06/02 14:24:08;;;;;;;;;;;23.00;74.20;;;;;;4976375;28;19910;-87
2022/06/02 14:26:34;;;;;;;;;;;23.00;78.40;;;;;;4983828;29;19949;-89
2022/06/02 14:29:00;;;;;;;;;;;23.10;78.20;;;;;;4967345;29;19910;-88
2022/06/02 14:31:25;;;;;;;;;;;22.70;76.10;;;;;;4983599;29;19917;-87
2022/06/02 14:33:58;;;;;;;;;;;22.90;75.60;;;;;;4967296;29;19970;-86
2022/06/02 14:36:43;;;;;;;;;;;22.90;78.30;;;;;;5000316;28;19910;-88
2022/06/02 14:39:22;;;;;;;;;;;22.80;79.70;;;;;;4978198;28;19936;-89
2022/06/02 14:41:54;;;;;;;;;;;23.20;74.60;;;;;;4986274;28;19950;-88
2022/06/02 14:44:26;;;;;;;;;;;23.30;72.60;;;;;;4986299;28;19917;-87
2022/06/02 14:47:13;;;;;;;;;;;23.30;76.00;;;;;;4986276;28;19914;-88
2022/06/02 14:49:57;;;;;;;;;;;23.10;71.80;;;;;;4985862;28;19910;-87
2022/06/02 14:52:41;;;;;;;;;;;23.50;71.70;;;;;;5002809;28;19910;-87
2022/06/02 14:55:18;;;;;;;;;;;23.50;69.90;;;;;;5002635;28;19928;-87
2022/06/02 14:57:59;;;;;;;;;;;23.80;67.50;;;;;;4985903;28;19969;-88
2022/06/02 15:00:49;;;;;;;;;;;23.40;71.40;;;;;;5002562;28;19969;-85
2022/06/02 15:03:15;;;;;;;;;;;23.50;71.00;;;;;;5002602;28;19945;-88
2022/06/02 15:05:58;;;;;;;;;;;22.90;71.40;;;;;;4985419;28;19906;-88
2022/06/02 15:08:36;;;;;;;;;;;22.90;71.20;;;;;;4985954;28;19917;-90
2022/06/02 15:11:20;;;;;;;;;;;23.50;69.50;;;;;;4985895;28;19914;-88
2022/06/02 15:13:55;;;;;;;;;;;23.40;66.50;;;;;;4985829;28;19941;-88
2022/06/02 15:16:39;;;;;;;;;;;23.20;74.70;;;;;;5002409;28;19922;-87
2022/06/02 15:19:21;;;;;;;;;;;23.30;73.30;;;;;;4985430;28;19974;-88
2022/06/02 15:22:16;;;;;;;;;;;23.20;69.60;;;;;;4969603;28;19910;-90
2022/06/02 15:24:41;;;;;;;;;;;23.10;71.20;;;;;;4945752;29;19910;-88
2022/06/02 15:27:16;;;;;;;;;;;23.30;70.30;;;;;;4962606;29;19911;-87
2022/06/02 15:30:03;;;;;;;;;;;23.00;69.00;;;;;;4962623;29;19911;-87
2022/06/02 15:32:47;;;;;;;;;;;22.70;72.80;;;;;;4946537;29;19918;-88
2022/06/02 15:35:12;;;;;;;;;;;22.50;72.50;;;;;;4946606;29;19911;-87
2022/06/02 15:37:47;;;;;;;;;;;22.20;72.10;;;;;;4962313;29;19911;-87
2022/06/02 15:40:12;;;;;;;;;;;22.10;73.60;;;;;;4930795;29;19918;-88